Time;durP1;ratioP1;P1;durP2;ratioP2;P2;SDS_P1;SDS_P2;PMS_P1;PMS_P2;Temp;Humidity;BMP_temperature;BMP_pressure;BME280_temperature;BME280_humidity;BME280_pressure;Samples;Min_cycle;Max_cycle;Signal;HPM_P1;HPM_P2
2022/03/14 00:02:11;;;;;;;3.30;2.03;;;12.60;99.90;;;;;;5030909;28;20423;-80
2022/03/14 00:04:38;;;;;;;3.60;2.10;;;12.60;99.90;;;;;;5032283;28;20196;-80
2022/03/14 00:07:04;;;;;;;5.70;2.63;;;12.60;99.90;;;;;;5032062;28;20179;-80
2022/03/14 00:09:30;;;;;;;3.43;2.00;;;12.60;99.90;;;;;;5032500;28;20419;-80
2022/03/14 00:11:57;;;;;;;4.10;2.60;;;12.50;99.90;;;;;;5032182;28;20498;-80
2022/03/14 00:14:25;;;;;;;3.77;2.47;;;12.50;99.90;;;;;;5032014;28;20196;-80
2022/03/14 00:16:52;;;;;;;5.47;2.77;;;12.40;99.90;;;;;;5031911;28;20415;-80
2022/03/14 00:19:20;;;;;;;6.17;3.00;;;12.40;99.90;;;;;;5030991;28;20518;-80
2022/03/14 00:21:47;;;;;;;4.43;2.63;;;12.30;99.90;;;;;;5031080;28;20509;-80
2022/03/14 00:24:12;;;;;;;3.63;2.07;;;12.20;99.90;;;;;;5032069;28;20471;-80
2022/03/14 00:26:39;;;;;;;3.90;2.60;;;12.10;99.90;;;;;;5031889;28;20841;-79
2022/03/14 00:29:08;;;;;;;4.70;2.47;;;12.00;99.90;;;;;;5032136;28;20639;-79
2022/03/14 00:31:35;;;;;;;4.00;2.37;;;12.00;99.90;;;;;;5030758;28;20918;-79
2022/03/14 00:39:04;;;;;;;4.67;2.90;;;11.90;99.90;;;;;;5008838;28;20483;-68
2022/03/14 00:41:29;;;;;;;6.73;3.07;;;11.90;99.90;;;;;;5010448;28;20940;-68
2022/03/14 00:43:55;;;;;;;4.40;2.60;;;11.80;99.90;;;;;;5009667;28;20185;-69
2022/03/14 00:46:21;;;;;;;4.30;2.90;;;11.80;99.90;;;;;;5008643;28;20462;-68
2022/03/14 00:48:47;;;;;;;4.50;2.73;;;11.90;99.90;;;;;;5023048;28;20184;-68
2022/03/14 00:51:13;;;;;;;4.40;3.00;;;11.90;99.90;;;;;;5024386;28;20914;-68
2022/03/14 00:53:39;;;;;;;5.70;2.83;;;11.90;99.90;;;;;;5025367;28;20212;-68
2022/03/14 00:56:06;;;;;;;3.90;2.50;;;12.00;99.90;;;;;;5025671;28;20438;-68
2022/03/14 00:58:33;;;;;;;5.37;3.40;;;12.00;99.90;;;;;;5033607;28;20208;-68
2022/03/14 01:00:59;;;;;;;7.30;4.10;;;12.10;99.90;;;;;;5033979;28;20415;-68
2022/03/14 01:03:24;;;;;;;4.20;2.60;;;12.10;99.90;;;;;;5033586;28;20807;-68
2022/03/14 01:05:50;;;;;;;4.77;3.10;;;12.10;99.90;;;;;;5033554;28;20415;-68
2022/03/14 01:08:16;;;;;;;5.43;3.50;;;12.10;99.90;;;;;;5033319;28;20188;-68
2022/03/14 01:10:42;;;;;;;4.37;2.63;;;12.10;99.90;;;;;;5033595;28;20180;-68
2022/03/14 01:13:11;;;;;;;5.13;2.90;;;12.10;99.90;;;;;;5033422;28;20473;-68
2022/03/14 01:15:37;;;;;;;6.13;3.30;;;12.00;99.90;;;;;;5033400;28;20426;-68
2022/03/14 01:18:04;;;;;;;4.20;2.57;;;11.90;99.90;;;;;;5033185;28;20439;-68
2022/03/14 01:20:31;;;;;;;4.20;2.73;;;11.80;99.90;;;;;;5033302;28;20858;-68
2022/03/14 01:22:57;;;;;;;5.83;3.30;;;11.70;99.90;;;;;;5033290;28;20422;-68
2022/03/14 01:25:27;;;;;;;4.67;2.80;;;11.70;99.90;;;;;;5033252;28;21001;-68
2022/03/14 01:27:54;;;;;;;4.80;2.87;;;11.60;99.90;;;;;;5032980;28;20295;-68
2022/03/14 01:30:21;;;;;;;6.47;3.77;;;11.50;99.90;;;;;;5033225;28;20427;-68
2022/03/14 01:32:50;;;;;;;5.03;3.03;;;11.40;99.90;;;;;;5033145;28;20463;-68
2022/03/14 01:35:20;;;;;;;5.73;3.40;;;11.40;99.90;;;;;;5032882;28;20419;-68
2022/03/14 01:37:49;;;;;;;4.10;2.70;;;11.30;99.90;;;;;;5032713;28;20576;-68
2022/03/14 01:40:16;;;;;;;5.17;3.00;;;11.30;99.90;;;;;;5033004;28;20418;-68
2022/03/14 01:42:42;;;;;;;6.10;3.30;;;11.20;99.90;;;;;;5033049;28;20822;-68
2022/03/14 01:45:10;;;;;;;7.03;3.57;;;11.20;99.90;;;;;;5032956;28;20423;-68
2022/03/14 01:47:38;;;;;;;5.63;3.87;;;11.20;99.90;;;;;;5032252;28;20465;-68
2022/03/14 01:50:05;;;;;;;6.30;3.83;;;11.10;99.90;;;;;;5032809;28;20422;-68
2022/03/14 01:52:31;;;;;;;6.50;3.80;;;11.00;99.90;;;;;;5032616;28;20810;-68
2022/03/14 01:54:57;;;;;;;6.00;3.87;;;11.00;99.90;;;;;;5032613;28;20408;-68
2022/03/14 01:57:23;;;;;;;5.53;3.80;;;10.90;99.90;;;;;;5032261;28;20446;-68
2022/03/14 01:59:49;;;;;;;6.00;3.60;;;10.90;99.90;;;;;;5032739;28;20185;-68
2022/03/14 02:02:15;;;;;;;4.23;3.03;;;10.90;99.90;;;;;;5032033;28;20423;-68
2022/03/14 02:04:41;;;;;;;5.00;3.10;;;10.80;99.90;;;;;;5032360;28;20235;-68
2022/03/14 02:07:07;;;;;;;5.77;3.60;;;10.80;99.90;;;;;;5032116;28;20451;-68
2022/03/14 02:09:32;;;;;;;6.50;4.17;;;10.80;99.90;;;;;;5032327;28;20180;-69
2022/03/14 02:12:00;;;;;;;5.83;3.80;;;10.70;99.90;;;;;;5032683;28;20184;-68
2022/03/14 02:14:25;;;;;;;6.73;3.77;;;10.60;99.90;;;;;;5032326;28;20176;-68
2022/03/14 02:16:52;;;;;;;8.70;4.63;;;10.60;99.90;;;;;;5031151;28;20519;-68
2022/03/14 02:19:18;;;;;;;6.70;3.90;;;10.60;99.90;;;;;;5032211;28;20574;-68
2022/03/14 02:21:44;;;;;;;6.73;4.00;;;10.60;99.90;;;;;;5032270;28;20481;-68
2022/03/14 02:24:10;;;;;;;8.57;4.43;;;10.60;99.90;;;;;;5032131;28;20410;-68
2022/03/14 02:26:41;;;;;;;5.30;3.80;;;10.50;99.90;;;;;;5031948;28;20435;-68
2022/03/14 02:29:08;;;;;;;7.33;4.23;;;10.50;99.90;;;;;;5032364;28;20438;-68
2022/03/14 02:31:37;;;;;;;7.17;4.20;;;10.40;99.90;;;;;;5032083;28;20415;-68
2022/03/14 02:34:05;;;;;;;6.37;3.63;;;10.30;99.90;;;;;;5031890;28;20475;-68
2022/03/14 02:36:31;;;;;;;6.67;4.80;;;10.30;99.90;;;;;;5031647;28;20511;-68
2022/03/14 02:38:57;;;;;;;7.30;4.80;;;10.20;99.90;;;;;;5027261;28;20883;-68
2022/03/14 02:41:23;;;;;;;6.37;4.13;;;10.20;99.90;;;;;;5019812;28;20915;-68
2022/03/14 02:43:49;;;;;;;6.53;4.83;;;10.20;99.90;;;;;;5023834;28;20572;-68
2022/03/14 02:46:15;;;;;;;5.63;4.03;;;10.20;99.90;;;;;;5031603;28;20439;-68
2022/03/14 02:48:41;;;;;;;8.30;4.80;;;10.20;99.90;;;;;;5031716;28;20470;-68
2022/03/14 02:51:07;;;;;;;8.10;4.90;;;10.10;99.90;;;;;;5031728;28;20259;-68
2022/03/14 02:53:33;;;;;;;7.90;5.03;;;10.10;99.90;;;;;;5031701;28;20549;-68
2022/03/14 02:55:59;;;;;;;6.53;3.90;;;10.10;99.90;;;;;;5031433;28;20412;-68
2022/03/14 02:58:29;;;;;;;6.70;4.37;;;10.00;99.90;;;;;;5031403;28;20211;-68
2022/03/14 03:00:57;;;;;;;7.40;4.50;;;10.00;99.90;;;;;;5030968;28;20234;-68
2022/03/14 03:03:22;;;;;;;6.73;4.60;;;10.00;99.90;;;;;;5031426;28;20808;-68
2022/03/14 03:05:48;;;;;;;5.83;4.20;;;9.90;99.90;;;;;;5031425;28;20825;-68
2022/03/14 03:08:14;;;;;;;7.27;4.50;;;10.00;99.90;;;;;;5031175;28;20212;-68
2022/03/14 03:10:41;;;;;;;7.27;4.53;;;9.90;99.90;;;;;;5031477;28;20267;-68
2022/03/14 03:13:09;;;;;;;6.03;4.30;;;10.00;99.90;;;;;;5030332;28;20261;-68
2022/03/14 03:15:37;;;;;;;6.50;4.73;;;9.90;99.90;;;;;;5031323;28;20411;-68
2022/03/14 03:18:04;;;;;;;6.20;4.13;;;9.90;99.90;;;;;;5031006;28;20435;-68
2022/03/14 03:20:30;;;;;;;7.07;4.57;;;9.90;99.90;;;;;;5031183;28;20407;-68
2022/03/14 03:22:56;;;;;;;8.97;5.07;;;9.90;99.90;;;;;;5031213;28;20423;-68
2022/03/14 03:25:22;;;;;;;8.00;4.80;;;9.90;99.90;;;;;;5031415;28;20184;-68
2022/03/14 03:27:48;;;;;;;8.43;4.47;;;9.90;99.90;;;;;;5030654;28;20207;-68
2022/03/14 03:30:15;;;;;;;10.27;5.70;;;9.90;99.90;;;;;;5030900;28;20242;-68
2022/03/14 03:32:41;;;;;;;8.37;5.70;;;9.90;99.90;;;;;;5030856;28;20463;-68
2022/03/14 03:35:08;;;;;;;8.43;5.83;;;9.90;99.90;;;;;;5030433;28;20766;-69
2022/03/14 03:37:34;;;;;;;8.00;5.33;;;9.80;99.90;;;;;;5030381;28;20461;-69
2022/03/14 03:40:00;;;;;;;7.50;5.20;;;9.80;99.90;;;;;;5030742;28;20785;-69
2022/03/14 03:42:26;;;;;;;12.63;5.53;;;9.80;99.90;;;;;;5030811;28;20698;-69
2022/03/14 03:44:52;;;;;;;7.80;5.00;;;9.80;99.90;;;;;;5030727;28;20426;-69
2022/03/14 03:47:17;;;;;;;8.97;5.77;;;9.80;99.90;;;;;;5030407;28;21005;-69
2022/03/14 03:49:43;;;;;;;8.20;4.87;;;9.80;99.90;;;;;;5030820;28;20235;-69
2022/03/14 03:52:10;;;;;;;7.03;4.30;;;9.80;99.90;;;;;;5030543;28;20604;-69
2022/03/14 03:54:36;;;;;;;7.87;5.13;;;9.70;99.90;;;;;;5030681;28;20222;-69
2022/03/14 03:57:02;;;;;;;8.00;5.40;;;9.70;99.90;;;;;;5030094;28;20443;-69
2022/03/14 03:59:28;;;;;;;9.77;6.50;;;9.70;99.90;;;;;;5030627;28;20984;-69
2022/03/14 04:01:55;;;;;;;10.20;6.07;;;9.70;99.90;;;;;;5030487;28;20415;-69
2022/03/14 04:04:22;;;;;;;10.50;5.80;;;9.70;99.90;;;;;;5030535;28;20259;-69
2022/03/14 04:06:55;;;;;;;10.23;6.70;;;9.70;99.90;;;;;;5030341;28;20439;-69
2022/03/14 04:09:21;;;;;;;8.53;6.17;;;9.70;99.90;;;;;;5030381;28;20457;-70
2022/03/14 04:11:47;;;;;;;8.43;5.73;;;9.70;99.90;;;;;;5030445;28;20411;-70
2022/03/14 04:14:13;;;;;;;10.60;6.07;;;9.70;99.90;;;;;;5030353;28;20215;-69
2022/03/14 04:16:41;;;;;;;10.73;6.43;;;9.70;99.90;;;;;;5030171;28;20210;-69
2022/03/14 04:19:07;;;;;;;8.30;5.80;;;9.70;99.90;;;;;;5030435;28;20219;-69
2022/03/14 04:21:36;;;;;;;9.07;5.73;;;9.80;99.90;;;;;;5030457;28;20768;-69
2022/03/14 04:24:06;;;;;;;9.40;6.23;;;9.70;99.90;;;;;;5031046;28;21056;-70
2022/03/14 04:26:32;;;;;;;10.97;6.40;;;9.70;99.90;;;;;;5034158;28;20435;-69
2022/03/14 04:28:58;;;;;;;6.07;5.47;;;9.70;99.90;;;;;;5034272;28;20419;-70
2022/03/14 04:31:24;;;;;;;9.40;6.30;;;9.70;99.90;;;;;;5034354;28;20529;-70
2022/03/14 04:33:49;;;;;;;11.53;6.30;;;9.60;99.90;;;;;;5034084;28;20266;-69
2022/03/14 04:36:15;;;;;;;8.07;4.97;;;9.70;99.90;;;;;;5034066;28;20216;-70
2022/03/14 04:38:44;;;;;;;8.27;5.20;;;9.70;99.90;;;;;;5033889;28;20188;-70
2022/03/14 04:41:11;;;;;;;8.13;5.33;;;9.60;99.90;;;;;;5034051;28;20184;-69
2022/03/14 04:43:37;;;;;;;7.20;4.87;;;9.70;99.90;;;;;;5034158;28;20422;-70
2022/03/14 04:46:02;;;;;;;9.13;4.50;;;9.70;99.90;;;;;;5033019;28;20437;-69
2022/03/14 04:48:28;;;;;;;13.27;5.60;;;9.70;99.90;;;;;;5033874;28;20207;-69
2022/03/14 04:50:56;;;;;;;6.40;4.17;;;9.70;99.90;;;;;;5033610;28;20717;-70
2022/03/14 04:53:22;;;;;;;5.80;3.80;;;9.70;99.90;;;;;;5033690;28;20462;-69
2022/03/14 04:55:48;;;;;;;6.43;3.90;;;9.70;99.90;;;;;;5033714;28;20418;-70
2022/03/14 04:58:14;;;;;;;9.43;4.37;;;9.70;99.90;;;;;;5033692;28;20200;-69
2022/03/14 05:00:41;;;;;;;6.03;4.63;;;9.70;99.90;;;;;;5033683;28;20426;-69
2022/03/14 05:03:09;;;;;;;7.30;4.70;;;9.60;99.90;;;;;;5033758;28;20430;-70
2022/03/14 05:05:35;;;;;;;7.70;4.13;;;9.60;99.90;;;;;;5033566;28;20419;-70
2022/03/14 05:08:00;;;;;;;8.30;3.80;;;9.60;99.90;;;;;;5033309;28;20457;-70
2022/03/14 05:10:27;;;;;;;6.47;4.27;;;9.60;99.90;;;;;;5033635;28;20433;-70
2022/03/14 05:12:53;;;;;;;6.30;4.00;;;9.60;99.90;;;;;;5033478;28;20463;-70
2022/03/14 05:15:19;;;;;;;7.17;4.13;;;9.60;99.90;;;;;;5033530;28;20486;-69
2022/03/14 05:17:46;;;;;;;5.10;2.87;;;9.60;99.90;;;;;;5033218;28;20197;-70
2022/03/14 05:20:12;;;;;;;4.47;3.27;;;9.60;99.90;;;;;;5033679;28;20411;-70
2022/03/14 05:22:51;;;;;;;5.90;3.37;;;9.50;99.90;;;;;;5034474;28;20432;-70
2022/03/14 05:25:19;;;;;;;4.93;3.30;;;9.60;99.90;;;;;;5033673;28;20419;-69
2022/03/14 05:27:45;;;;;;;4.90;2.97;;;9.60;99.90;;;;;;5033070;28;20809;-69
2022/03/14 05:30:12;;;;;;;3.90;2.80;;;9.50;99.90;;;;;;5033233;28;20510;-69
2022/03/14 05:32:40;;;;;;;4.40;2.70;;;9.50;99.90;;;;;;5033110;28;20462;-69
2022/03/14 05:35:07;;;;;;;4.50;2.37;;;9.50;99.90;;;;;;5033033;28;20426;-70
2022/03/14 05:37:33;;;;;;;4.37;2.70;;;9.50;99.90;;;;;;5032094;28;20459;-69
2022/03/14 05:39:59;;;;;;;5.83;2.90;;;9.60;99.90;;;;;;5033200;28;20502;-69
2022/03/14 05:42:25;;;;;;;4.83;2.80;;;9.50;99.90;;;;;;5033101;28;20450;-69
2022/03/14 05:44:51;;;;;;;4.53;2.87;;;9.50;99.90;;;;;;5032917;28;20450;-69
2022/03/14 05:47:19;;;;;;;6.43;2.90;;;9.40;99.90;;;;;;5032563;28;20439;-69
2022/03/14 05:49:45;;;;;;;4.50;2.90;;;9.40;99.90;;;;;;5032808;28;20419;-69
2022/03/14 05:52:12;;;;;;;5.63;3.00;;;9.40;99.90;;;;;;5032882;28;20868;-69
2022/03/14 05:54:38;;;;;;;5.40;3.60;;;9.40;99.90;;;;;;5032843;28;20447;-69
2022/03/14 05:57:04;;;;;;;4.80;3.07;;;9.40;99.90;;;;;;5032492;28;20475;-69
2022/03/14 05:59:30;;;;;;;6.50;3.20;;;9.40;99.90;;;;;;5032703;28;20698;-69
2022/03/14 06:01:55;;;;;;;3.97;2.70;;;9.40;99.90;;;;;;5032690;28;20442;-69
2022/03/14 06:04:21;;;;;;;4.60;2.57;;;9.50;99.90;;;;;;5032586;28;20199;-69
2022/03/14 06:06:47;;;;;;;5.60;2.40;;;9.50;99.90;;;;;;5031733;28;20250;-69
2022/03/14 06:09:13;;;;;;;4.43;2.90;;;9.50;99.90;;;;;;5032709;28;20185;-69
2022/03/14 06:11:39;;;;;;;4.67;2.70;;;9.40;99.90;;;;;;5032481;28;20419;-69
2022/03/14 06:14:05;;;;;;;4.83;3.43;;;9.40;99.90;;;;;;5032353;28;20469;-69
2022/03/14 06:16:32;;;;;;;5.70;3.20;;;9.50;99.90;;;;;;5031850;28;20937;-69
2022/03/14 06:18:57;;;;;;;5.90;3.13;;;9.50;99.90;;;;;;5032425;28;20790;-69
2022/03/14 06:21:24;;;;;;;6.03;3.10;;;9.60;99.90;;;;;;5032333;28;20476;-69
2022/03/14 06:23:50;;;;;;;4.40;2.63;;;9.60;99.90;;;;;;5032173;28;20674;-69
2022/03/14 06:26:17;;;;;;;4.97;3.20;;;9.70;99.90;;;;;;5032185;28;20439;-69
2022/03/14 06:28:42;;;;;;;4.70;2.73;;;9.80;99.90;;;;;;5031855;28;20178;-69
2022/03/14 06:31:09;;;;;;;4.20;2.73;;;9.80;99.90;;;;;;5032095;28;20552;-69
2022/03/14 06:33:36;;;;;;;5.10;2.90;;;9.80;99.90;;;;;;5031858;28;20557;-69
2022/03/14 06:36:02;;;;;;;6.40;3.33;;;9.80;99.90;;;;;;5031882;28;20407;-69
2022/03/14 06:38:27;;;;;;;4.47;3.00;;;9.80;99.90;;;;;;5031539;28;20719;-69
2022/03/14 06:41:02;;;;;;;5.90;3.60;;;9.80;99.90;;;;;;5018828;22;20497;-90
2022/03/14 06:43:29;;;;;;;4.73;3.10;;;9.70;99.90;;;;;;4973549;28;20269;-90
2022/03/14 06:45:54;;;;;;;4.60;3.00;;;9.70;99.90;;;;;;4973840;28;20473;-90
2022/03/14 06:48:21;;;;;;;6.30;3.63;;;9.60;99.90;;;;;;4973853;28;20458;-90
2022/03/14 06:50:47;;;;;;;6.90;3.33;;;9.60;99.90;;;;;;4986619;28;20205;-90
2022/03/14 06:53:12;;;;;;;4.23;2.60;;;9.50;99.90;;;;;;4993411;28;20852;-89
2022/03/14 06:55:38;;;;;;;4.97;2.90;;;9.60;99.90;;;;;;4993157;28;20445;-89
2022/03/14 06:58:04;;;;;;;6.00;2.97;;;9.60;99.90;;;;;;4992838;28;20181;-90
2022/03/14 07:00:29;;;;;;;9.07;3.20;;;9.60;99.90;;;;;;4989862;28;20272;-89
2022/03/14 07:02:55;;;;;;;7.20;3.43;;;9.50;99.90;;;;;;4973883;28;20187;-89
2022/03/14 07:05:24;;;;;;;8.63;2.97;;;9.50;99.90;;;;;;4973582;28;20191;-89
2022/03/14 07:07:50;;;;;;;6.97;3.20;;;9.50;99.90;;;;;;4973186;28;20242;-89
2022/03/14 07:10:17;;;;;;;5.47;3.00;;;9.50;99.90;;;;;;4973448;28;20974;-90
2022/03/14 07:12:48;;;;;;;7.50;3.00;;;9.50;99.90;;;;;;4973461;28;20548;-89
2022/03/14 07:15:16;;;;;;;5.50;3.30;;;9.50;99.90;;;;;;4973360;28;20444;-90
2022/03/14 07:17:42;;;;;;;6.03;2.57;;;9.40;99.90;;;;;;4972916;28;20422;-90
2022/03/14 07:20:10;;;;;;;4.83;2.70;;;9.40;99.90;;;;;;4973213;28;20438;-90
2022/03/14 07:22:54;;;;;;;3.80;2.70;;;9.50;99.90;;;;;;4973225;28;20437;-89
2022/03/14 07:25:30;;;;;;;5.60;2.97;;;9.50;99.90;;;;;;4973303;28;20520;-89
2022/03/14 07:27:59;;;;;;;6.77;3.27;;;9.50;99.90;;;;;;4972812;28;20433;-90
2022/03/14 07:30:25;;;;;;;4.67;2.97;;;9.60;99.90;;;;;;4981492;28;20599;-90
2022/03/14 07:32:52;;;;;;;5.20;3.07;;;9.60;99.90;;;;;;4992199;28;20535;-90
2022/03/14 07:35:18;;;;;;;6.53;3.30;;;9.70;99.90;;;;;;4992604;28;20424;-89
2022/03/14 07:37:44;;;;;;;4.20;2.70;;;9.70;99.90;;;;;;4992133;28;20556;-90
2022/03/14 07:40:12;;;;;;;5.13;3.37;;;9.80;99.90;;;;;;4992216;28;20528;-90
2022/03/14 07:42:42;;;;;;;4.17;3.23;;;9.90;99.90;;;;;;4992345;28;20200;-89
2022/03/14 07:45:09;;;;;;;6.40;3.30;;;9.90;99.90;;;;;;4992221;28;20425;-90
2022/03/14 07:47:34;;;;;;;5.50;3.00;;;9.90;99.90;;;;;;4992098;28;21168;-89
2022/03/14 07:50:00;;;;;;;6.10;2.90;;;10.00;99.90;;;;;;4992064;28;20580;-89
2022/03/14 07:52:26;;;;;;;6.93;3.00;;;10.20;99.90;;;;;;4992206;28;20208;-89
2022/03/14 07:54:52;;;;;;;5.00;3.00;;;10.20;99.90;;;;;;4992155;28;20241;-90
2022/03/14 07:57:17;;;;;;;3.37;2.70;;;10.30;99.90;;;;;;4991909;28;20185;-91
2022/03/14 07:59:46;;;;;;;5.53;2.70;;;10.40;99.90;;;;;;4991454;28;20204;-92
2022/03/14 08:02:15;;;;;;;4.57;3.00;;;10.50;99.90;;;;;;4991987;28;20194;-91
2022/03/14 08:04:41;;;;;;;4.83;3.20;;;10.60;99.90;;;;;;4991967;28;20460;-89
2022/03/14 08:07:07;;;;;;;4.63;2.73;;;10.70;99.90;;;;;;4991794;28;20436;-89
2022/03/14 08:09:33;;;;;;;5.97;3.40;;;10.90;99.90;;;;;;4992197;28;20452;-89
2022/03/14 08:12:00;;;;;;;6.20;3.23;;;11.10;99.90;;;;;;4992015;28;20184;-89
2022/03/14 08:14:27;;;;;;;4.83;3.07;;;11.20;99.90;;;;;;4992100;28;20922;-90
2022/03/14 08:16:53;;;;;;;7.13;3.13;;;11.30;99.90;;;;;;4992451;28;20516;-89
2022/03/14 08:19:20;;;;;;;5.47;3.27;;;11.40;99.90;;;;;;4992040;28;20460;-90
2022/03/14 08:21:51;;;;;;;12.07;3.20;;;11.40;99.90;;;;;;4991817;28;20460;-90
2022/03/14 08:24:17;;;;;;;4.27;2.70;;;11.40;99.90;;;;;;4991920;28;20460;-90
2022/03/14 08:26:43;;;;;;;7.20;2.73;;;11.40;99.90;;;;;;4991634;28;20800;-90
2022/03/14 08:29:09;;;;;;;5.83;3.00;;;11.30;99.90;;;;;;4991821;28;20953;-91
2022/03/14 08:31:35;;;;;;;3.70;2.50;;;11.30;99.90;;;;;;4991685;28;20444;-89
2022/03/14 08:34:01;;;;;;;5.20;3.07;;;11.40;99.90;;;;;;4991405;28;20470;-89
2022/03/14 08:36:27;;;;;;;4.60;3.33;;;11.50;99.90;;;;;;4991387;28;20433;-89
2022/03/14 08:38:54;;;;;;;4.17;2.43;;;11.50;99.90;;;;;;4991656;28;20435;-89
2022/03/14 08:41:19;;;;;;;5.53;3.23;;;11.60;99.90;;;;;;4991410;28;20456;-89
2022/03/14 08:43:45;;;;;;;4.10;2.80;;;11.50;99.90;;;;;;4988242;28;20449;-89
2022/03/14 08:46:12;;;;;;;3.50;2.50;;;11.70;99.90;;;;;;4972268;28;20194;-90
2022/03/14 08:48:38;;;;;;;5.10;2.87;;;11.60;99.90;;;;;;4972083;28;20981;-90
2022/03/14 08:51:04;;;;;;;4.50;3.03;;;11.50;99.90;;;;;;4972147;28;20456;-89
2022/03/14 08:53:30;;;;;;;5.83;3.30;;;11.50;99.90;;;;;;4972107;28;20465;-89
2022/03/14 08:55:56;;;;;;;5.60;2.73;;;11.40;99.90;;;;;;4978841;28;20998;-90
2022/03/14 08:58:22;;;;;;;5.10;3.60;;;11.40;99.90;;;;;;4991434;28;20429;-89
2022/03/14 09:00:49;;;;;;;4.83;2.90;;;11.50;99.90;;;;;;4991805;28;20678;-89
2022/03/14 09:03:15;;;;;;;4.97;2.90;;;11.50;99.90;;;;;;4991752;28;20523;-89
2022/03/14 09:05:41;;;;;;;4.20;2.80;;;11.60;99.90;;;;;;4991360;28;20508;-89
2022/03/14 09:08:07;;;;;;;6.23;2.80;;;11.70;99.90;;;;;;4989218;28;20209;-89
2022/03/14 09:10:36;;;;;;;5.27;3.20;;;11.80;99.90;;;;;;4982539;28;20555;-89
2022/03/14 09:13:03;;;;;;;4.70;2.83;;;11.70;99.90;;;;;;4994476;28;20229;-89
2022/03/14 09:15:30;;;;;;;4.47;2.80;;;11.60;99.90;;;;;;4994087;28;20989;-89
2022/03/14 09:17:59;;;;;;;5.40;2.90;;;11.60;99.90;;;;;;4993986;28;20425;-90
2022/03/14 09:20:26;;;;;;;7.77;2.77;;;11.70;99.90;;;;;;4993127;28;20521;-90
2022/03/14 09:22:52;;;;;;;3.67;2.93;;;11.60;99.90;;;;;;5002696;28;20443;-90
2022/03/14 09:25:22;;;;;;;7.20;3.13;;;11.60;99.90;;;;;;4995354;28;20446;-89
2022/03/14 09:27:49;;;;;;;6.63;2.53;;;11.60;99.90;;;;;;4993737;28;20918;-89
2022/03/14 09:30:15;;;;;;;6.30;3.00;;;11.90;99.90;;;;;;4993334;28;20456;-89
2022/03/14 09:32:42;;;;;;;4.67;2.70;;;12.20;99.90;;;;;;4993851;28;20471;-89
2022/03/14 09:35:09;;;;;;;3.90;2.50;;;12.40;99.90;;;;;;4993912;28;20420;-89
2022/03/14 09:37:39;;;;;;;4.57;2.70;;;12.40;99.90;;;;;;4994241;28;20421;-89
2022/03/14 09:40:10;;;;;;;5.40;2.63;;;12.40;99.90;;;;;;4993020;28;20449;-89
2022/03/14 09:42:38;;;;;;;4.67;3.00;;;12.40;99.90;;;;;;5003452;28;20460;-89
2022/03/14 09:45:09;;;;;;;4.10;2.67;;;12.50;99.90;;;;;;5004444;28;20438;-90
2022/03/14 09:47:40;;;;;;;5.00;3.50;;;12.70;99.90;;;;;;4992463;28;20456;-89
2022/03/14 09:50:11;;;;;;;4.53;2.60;;;12.70;99.90;;;;;;4993015;28;20863;-89
2022/03/14 09:52:40;;;;;;;3.83;2.47;;;12.60;99.90;;;;;;4993354;28;20981;-89
2022/03/14 09:55:08;;;;;;;4.10;2.70;;;12.90;99.90;;;;;;4993547;28;20847;-89
2022/03/14 09:57:36;;;;;;;6.57;3.30;;;13.00;99.90;;;;;;4993450;28;20421;-89
2022/03/14 10:00:02;;;;;;;5.17;2.90;;;13.10;99.90;;;;;;4993589;28;20443;-89
2022/03/14 10:02:29;;;;;;;4.60;3.03;;;13.50;99.90;;;;;;4993612;28;20444;-89
2022/03/14 10:04:55;;;;;;;4.93;3.33;;;13.80;99.90;;;;;;4993821;28;20421;-89
2022/03/14 10:07:21;;;;;;;4.93;3.53;;;13.80;99.90;;;;;;4993487;28;20475;-89
2022/03/14 10:09:47;;;;;;;5.67;3.90;;;14.20;99.90;;;;;;4993281;28;20216;-89
2022/03/14 10:12:13;;;;;;;6.10;3.80;;;14.50;99.90;;;;;;4993490;28;20934;-89
2022/03/14 10:14:39;;;;;;;6.33;4.07;;;15.60;99.90;;;;;;4993216;28;20221;-89
2022/03/14 10:17:05;;;;;;;5.10;3.50;;;17.50;99.90;;;;;;4993209;28;20433;-89
2022/03/14 10:19:34;;;;;;;3.97;3.10;;;17.60;99.90;;;;;;4993190;28;20457;-89
2022/03/14 10:22:18;;;;;;;5.30;3.07;;;18.60;99.90;;;;;;4993044;28;20793;-89
2022/03/14 10:24:44;;;;;;;4.20;2.50;;;20.30;99.90;;;;;;4993367;28;20425;-89
2022/03/14 10:27:12;;;;;;;3.33;2.50;;;21.60;99.90;;;;;;4993287;28;20519;-89
2022/03/14 10:29:38;;;;;;;4.73;3.50;;;20.30;99.90;;;;;;4993011;28;20452;-89
2022/03/14 10:32:30;;;;;;;4.93;2.83;;;19.80;99.90;;;;;;4993174;28;20425;-88
2022/03/14 10:35:07;;;;;;;3.30;2.23;;;17.50;99.90;;;;;;4993086;28;20516;-88
2022/03/14 10:37:34;;;;;;;4.00;2.93;;;16.00;99.90;;;;;;4992998;28;20448;-88
2022/03/14 10:40:08;;;;;;;4.37;2.60;;;15.30;99.90;;;;;;4992818;28;20440;-88
2022/03/14 10:42:42;;;;;;;4.80;3.30;;;14.90;99.90;;;;;;4992849;28;20441;-88
2022/03/14 10:45:12;;;;;;;4.30;3.07;;;14.70;99.90;;;;;;4992581;28;20429;-88
2022/03/14 10:47:44;;;;;;;4.10;2.30;;;16.30;99.90;;;;;;4992568;28;20421;-88
2022/03/14 10:50:27;;;;;;;4.47;2.50;;;17.60;99.90;;;;;;4992811;28;20617;-88
2022/03/14 10:53:10;;;;;;;4.57;2.63;;;17.00;99.90;;;;;;4992659;28;20818;-88
2022/03/14 10:55:42;;;;;;;3.97;2.67;;;16.30;99.90;;;;;;4992886;28;20420;-87
2022/03/14 10:58:12;;;;;;;5.23;2.87;;;16.50;99.90;;;;;;4992582;28;20525;-88
2022/03/14 11:00:52;;;;;;;5.50;3.50;;;18.30;99.90;;;;;;4992399;28;20452;-88
2022/03/14 11:03:32;;;;;;;4.27;2.50;;;19.10;99.90;;;;;;4992476;28;20413;-88
2022/03/14 11:06:02;;;;;;;5.10;2.90;;;18.50;99.90;;;;;;4992649;28;20425;-88
2022/03/14 11:08:48;;;;;;;4.67;2.47;;;17.30;99.90;;;;;;4992140;28;20457;-87
2022/03/14 11:11:22;;;;;;;3.70;2.80;;;16.40;99.90;;;;;;4992038;28;20467;-87
2022/03/14 11:13:52;;;;;;;3.23;2.33;;;16.50;99.90;;;;;;4992118;28;20495;-88
2022/03/14 11:16:29;;;;;;;4.60;2.80;;;16.10;99.90;;;;;;4992287;28;20405;-88
2022/03/14 11:18:56;;;;;;;3.77;2.40;;;15.70;99.90;;;;;;4992517;28;20470;-87
2022/03/14 11:21:24;;;;;;;6.23;3.20;;;15.60;99.90;;;;;;4992072;28;20528;-88
2022/03/14 11:23:52;;;;;;;4.53;2.67;;;15.40;99.90;;;;;;4992239;28;20810;-88
2022/03/14 11:26:20;;;;;;;6.33;3.40;;;15.50;99.90;;;;;;4992138;28;20456;-87
2022/03/14 11:28:48;;;;;;;6.73;3.10;;;15.50;99.90;;;;;;4991636;28;20441;-87
2022/03/14 11:31:14;;;;;;;4.43;2.10;;;16.00;99.90;;;;;;4991897;28;20453;-87
2022/03/14 11:33:43;;;;;;;4.23;2.37;;;16.40;99.90;;;;;;4991300;28;20484;-87
2022/03/14 11:36:09;;;;;;;3.90;2.07;;;16.30;99.90;;;;;;4991769;28;20417;-87
2022/03/14 11:38:36;;;;;;;4.47;1.83;;;16.30;99.90;;;;;;4991716;28;20428;-88
2022/03/14 11:41:02;;;;;;;5.40;1.83;;;16.00;99.90;;;;;;4991677;28;20449;-86
2022/03/14 11:43:28;;;;;;;3.27;1.70;;;15.80;99.90;;;;;;4991780;28;20448;-87
2022/03/14 11:45:58;;;;;;;3.50;1.80;;;15.60;99.90;;;;;;4991613;28;20451;-87
2022/03/14 11:48:29;;;;;;;3.27;1.43;;;15.30;99.90;;;;;;4991652;28;20949;-87
2022/03/14 11:51:00;;;;;;;3.97;1.80;;;15.20;99.90;;;;;;4991527;28;20874;-87
2022/03/14 11:53:27;;;;;;;3.30;1.60;;;14.90;99.90;;;;;;4991603;28;20460;-87
2022/03/14 11:55:55;;;;;;;4.07;1.70;;;14.50;99.90;;;;;;4991817;28;20841;-87
2022/03/14 11:58:37;;;;;;;3.13;1.40;;;14.30;99.90;;;;;;4991451;28;20417;-87
2022/03/14 12:01:33;;;;;;;4.43;2.57;;;14.20;99.90;;;;;;4991428;28;20443;-87
2022/03/14 12:04:02;;;;;;;2.80;1.37;;;14.00;99.90;;;;;;4975480;28;20428;-87
2022/03/14 12:06:46;;;;;;;4.20;1.80;;;13.90;99.90;;;;;;4991100;28;20429;-88
2022/03/14 12:09:24;;;;;;;2.90;1.87;;;13.90;99.90;;;;;;4991532;28;20476;-87
2022/03/14 12:11:50;;;;;;;3.47;1.80;;;13.80;99.90;;;;;;4991426;28;20423;-87
2022/03/14 12:14:43;;;;;;;2.60;1.50;;;13.70;99.90;;;;;;4991369;28;20480;-87
2022/03/14 12:17:14;;;;;;;2.97;1.50;;;13.60;99.90;;;;;;4991432;28;20479;-87
2022/03/14 12:20:03;;;;;;;3.90;1.30;;;13.50;99.90;;;;;;4991276;28;20950;-87
2022/03/14 12:22:42;;;;;;;5.00;1.77;;;13.60;99.90;;;;;;4991316;28;20428;-87
2022/03/14 12:25:13;;;;;;;3.50;1.63;;;13.60;99.90;;;;;;4991166;28;20458;-86
2022/03/14 12:27:43;;;;;;;3.40;1.70;;;13.60;99.90;;;;;;4991219;28;20430;-87
2022/03/14 12:30:15;;;;;;;5.07;2.10;;;13.60;99.90;;;;;;4991050;28;20437;-86
2022/03/14 12:32:50;;;;;;;5.43;2.37;;;13.70;99.90;;;;;;4991225;28;20473;-87
2022/03/14 12:35:22;;;;;;;4.00;2.10;;;13.80;99.90;;;;;;4990948;28;20842;-87
2022/03/14 12:37:53;;;;;;;4.50;1.80;;;13.80;99.90;;;;;;4991078;28;20429;-87
2022/03/14 12:40:19;;;;;;;3.43;2.20;;;13.80;99.90;;;;;;4991106;28;20445;-88
2022/03/14 12:42:50;;;;;;;6.70;2.83;;;14.00;99.90;;;;;;4989028;28;20899;-87
2022/03/14 12:45:29;;;;;;;5.40;2.43;;;14.20;99.90;;;;;;4991500;28;20535;-87
2022/03/14 12:47:57;;;;;;;4.40;2.27;;;14.50;99.90;;;;;;4991911;28;20441;-87
2022/03/14 12:50:42;;;;;;;5.37;3.00;;;14.80;99.90;;;;;;4992074;28;21017;-87
2022/03/14 12:53:08;;;;;;;3.60;1.90;;;14.90;99.90;;;;;;5008346;28;20461;-86
2022/03/14 12:55:34;;;;;;;4.50;2.27;;;15.00;99.90;;;;;;4995442;28;20771;-87
2022/03/14 12:58:01;;;;;;;4.07;2.70;;;15.00;99.90;;;;;;4995289;28;20424;-87
2022/03/14 13:00:26;;;;;;;3.87;2.10;;;14.90;99.90;;;;;;4995681;28;20205;-87